createdAt,value
2023-09-09T00:00:52.827Z,100.00
2023-09-09T00:02:25.760Z,100.00
2023-09-09T00:03:59.794Z,100.00
2023-09-09T00:05:34.384Z,100.00
2023-09-09T00:07:07.583Z,100.00
2023-09-09T00:08:41.646Z,100.00
2023-09-09T00:10:14.541Z,100.00
2023-09-09T00:11:47.648Z,100.00
2023-09-09T00:13:20.493Z,100.00
2023-09-09T00:14:53.442Z,100.00
2023-09-09T00:16:26.298Z,100.00
2023-09-09T00:18:02.724Z,100.00
2023-09-09T00:19:35.750Z,100.00
2023-09-09T00:21:08.610Z,100.00
2023-09-09T00:22:41.604Z,100.00
2023-09-09T00:24:14.781Z,100.00
2023-09-09T00:25:48.068Z,100.00
2023-09-09T00:27:21.237Z,100.00
2023-09-09T00:28:54.358Z,100.00
2023-09-09T00:30:27.643Z,100.00
2023-09-09T00:32:00.722Z,100.00
2023-09-09T00:33:33.914Z,100.00
2023-09-09T00:35:07.084Z,100.00
2023-09-09T00:36:40.104Z,100.00
2023-09-09T00:38:14.742Z,100.00
2023-09-09T00:39:48.364Z,100.00
2023-09-09T00:41:21.529Z,100.00
2023-09-09T00:42:54.369Z,100.00
2023-09-09T00:44:27.440Z,100.00
2023-09-09T00:46:00.491Z,100.00
2023-09-09T00:47:35.161Z,100.00
2023-09-09T00:49:08.284Z,100.00
2023-09-09T00:50:41.417Z,100.00
2023-09-09T00:52:14.603Z,100.00
2023-09-09T00:53:48.178Z,100.00
2023-09-09T00:55:22.772Z,100.00
2023-09-09T00:57:00.049Z,100.00
2023-09-09T00:58:33.434Z,100.00
2023-09-09T01:00:07.214Z,100.00
2023-09-09T01:01:40.265Z,100.00
2023-09-09T01:03:13.395Z,100.00
2023-09-09T01:04:46.598Z,100.00
2023-09-09T01:06:23.768Z,100.00
2023-09-09T01:07:56.873Z,100.00
2023-09-09T01:09:33.157Z,100.00
2023-09-09T01:11:05.992Z,100.00
2023-09-09T01:12:39.310Z,100.00
2023-09-09T01:14:12.459Z,100.00
2023-09-09T01:15:45.427Z,100.00
2023-09-09T01:17:19.235Z,100.00
2023-09-09T01:18:52.329Z,100.00
2023-09-09T01:20:28.856Z,100.00
2023-09-09T01:22:04.864Z,100.00
2023-09-09T01:23:39.021Z,100.00
2023-09-09T01:25:13.667Z,100.00
2023-09-09T01:26:46.755Z,100.00
2023-09-09T01:28:21.670Z,100.00
2023-09-09T01:29:54.535Z,100.00
2023-09-09T01:31:27.597Z,100.00
2023-09-09T01:33:00.612Z,100.00
2023-09-09T01:34:33.738Z,100.00
2023-09-09T01:36:06.844Z,100.00
2023-09-09T01:37:39.775Z,100.00
2023-09-09T01:39:12.615Z,100.00
2023-09-09T01:40:45.996Z,100.00
2023-09-09T01:42:19.233Z,100.00
2023-09-09T01:43:52.266Z,100.00
2023-09-09T01:45:25.380Z,100.00
2023-09-09T01:46:58.521Z,100.00
2023-09-09T01:48:31.573Z,100.00
2023-09-09T01:50:04.774Z,100.00
2023-09-09T01:51:37.698Z,100.00
2023-09-09T01:53:10.724Z,100.00
2023-09-09T01:54:43.800Z,100.00
2023-09-09T01:56:16.678Z,100.00
2023-09-09T01:57:49.848Z,100.00
2023-09-09T01:59:22.815Z,100.00
2023-09-09T02:00:55.893Z,100.00
2023-09-09T02:02:28.900Z,100.00
2023-09-09T02:04:02.275Z,100.00
2023-09-09T02:05:35.887Z,100.00
2023-09-09T02:07:08.883Z,100.00
2023-09-09T02:08:41.734Z,100.00
2023-09-09T02:10:14.795Z,100.00
2023-09-09T02:11:47.598Z,100.00
2023-09-09T02:13:20.494Z,100.00
2023-09-09T02:14:53.818Z,100.00
2023-09-09T02:16:26.890Z,100.00
2023-09-09T02:17:59.815Z,100.00
2023-09-09T02:19:33.236Z,100.00
2023-09-09T02:21:06.741Z,100.00
2023-09-09T02:22:40.269Z,100.00
2023-09-09T02:24:13.066Z,100.00
2023-09-09T02:25:46.022Z,100.00
2023-09-09T02:27:18.892Z,100.00
2023-09-09T02:28:51.771Z,100.00
2023-09-09T02:30:24.652Z,100.00
2023-09-09T02:31:57.798Z,100.00
2023-09-09T02:33:30.709Z,100.00
2023-09-09T02:35:04.023Z,100.00
2023-09-09T02:36:36.882Z,100.00
2023-09-09T02:38:09.921Z,100.00
2023-09-09T02:39:42.973Z,100.00
2023-09-09T02:41:15.891Z,100.00
2023-09-09T02:42:48.902Z,100.00
2023-09-09T02:44:21.842Z,100.00
2023-09-09T02:45:54.730Z,100.00
2023-09-09T02:47:27.910Z,100.00
2023-09-09T02:49:00.688Z,100.00
2023-09-09T02:50:35.314Z,100.00
2023-09-09T02:52:10.401Z,100.00
2023-09-09T02:53:43.638Z,100.00
2023-09-09T02:55:16.973Z,100.00
2023-09-09T02:56:50.278Z,100.00
2023-09-09T02:58:23.305Z,100.00
2023-09-09T02:59:56.634Z,100.00
2023-09-09T03:01:29.583Z,100.00
2023-09-09T03:03:02.652Z,100.00
2023-09-09T03:04:35.902Z,100.00
2023-09-09T03:06:12.034Z,100.00
2023-09-09T03:07:46.276Z,100.00
2023-09-09T03:09:19.250Z,100.00
2023-09-09T03:10:54.429Z,100.00
2023-09-09T03:12:28.480Z,100.00
2023-09-09T03:14:01.454Z,100.00
2023-09-09T03:15:34.265Z,100.00
2023-09-09T03:17:07.463Z,100.00
2023-09-09T03:18:40.473Z,100.00
2023-09-09T03:20:13.394Z,100.00
2023-09-09T03:21:48.719Z,100.00
2023-09-09T03:23:21.691Z,100.00
2023-09-09T03:24:54.798Z,100.00
2023-09-09T03:26:27.838Z,100.00
2023-09-09T03:28:00.802Z,100.00
2023-09-09T03:29:33.622Z,100.00
2023-09-09T03:31:06.922Z,100.00
2023-09-09T03:32:39.758Z,100.00
2023-09-09T03:34:12.591Z,100.00
2023-09-09T03:35:45.393Z,100.00
2023-09-09T03:37:18.505Z,100.00
2023-09-09T03:38:52.025Z,100.00
2023-09-09T03:40:25.105Z,100.00
2023-09-09T03:41:57.970Z,100.00
2023-09-09T03:43:31.116Z,100.00
2023-09-09T03:45:04.436Z,100.00
2023-09-09T03:46:37.345Z,100.00
2023-09-09T03:48:10.586Z,100.00
2023-09-09T03:49:44.048Z,100.00
2023-09-09T03:51:17.200Z,100.00
2023-09-09T03:52:50.232Z,100.00
2023-09-09T03:54:23.316Z,100.00
2023-09-09T03:55:56.514Z,100.00
2023-09-09T03:57:29.601Z,100.00
2023-09-09T03:59:02.711Z,100.00
2023-09-09T04:00:38.212Z,100.00
2023-09-09T04:02:11.173Z,100.00
2023-09-09T04:03:44.577Z,100.00
2023-09-09T04:05:18.144Z,100.00
2023-09-09T04:06:51.055Z,100.00
2023-09-09T04:08:24.091Z,100.00
2023-09-09T04:09:57.061Z,100.00
2023-09-09T04:11:30.030Z,100.00
2023-09-09T04:13:03.112Z,100.00
2023-09-09T04:14:39.204Z,100.00
2023-09-09T04:16:12.125Z,100.00
2023-09-09T04:17:45.019Z,100.00
2023-09-09T04:19:18.216Z,100.00
2023-09-09T04:20:51.462Z,100.00
2023-09-09T04:22:24.490Z,100.00
2023-09-09T04:23:57.443Z,100.00
2023-09-09T04:25:31.270Z,100.00
2023-09-09T04:27:04.894Z,100.00
2023-09-09T04:28:41.754Z,100.00
2023-09-09T04:30:15.028Z,100.00
2023-09-09T04:31:48.748Z,100.00
2023-09-09T04:33:21.707Z,100.00
2023-09-09T04:34:54.729Z,100.00
2023-09-09T04:36:27.711Z,100.00
2023-09-09T04:38:00.910Z,100.00
2023-09-09T04:39:34.004Z,100.00
2023-09-09T04:41:06.834Z,100.00
2023-09-09T04:42:39.687Z,100.00
2023-09-09T04:44:12.714Z,100.00
2023-09-09T04:45:45.812Z,100.00
2023-09-09T04:47:18.834Z,100.00
2023-09-09T04:48:54.783Z,100.00
2023-09-09T04:50:27.710Z,100.00
2023-09-09T04:52:00.640Z,100.00
2023-09-09T04:53:33.768Z,100.00
2023-09-09T04:55:06.850Z,100.00
2023-09-09T04:56:42.527Z,100.00
2023-09-09T04:58:16.061Z,100.00
2023-09-09T04:59:49.151Z,100.00
2023-09-09T05:01:22.398Z,100.00
2023-09-09T05:02:55.471Z,100.00
2023-09-09T05:04:28.614Z,100.00
2023-09-09T05:06:01.617Z,100.00
2023-09-09T05:07:36.616Z,100.00
2023-09-09T05:09:09.429Z,100.00
2023-09-09T05:10:42.401Z,100.00
2023-09-09T05:12:15.522Z,100.00
2023-09-09T05:13:48.474Z,100.00
2023-09-09T05:15:21.333Z,100.00
2023-09-09T05:16:54.492Z,100.00
2023-09-09T05:18:29.300Z,100.00
2023-09-09T05:20:02.373Z,100.00
2023-09-09T05:21:35.157Z,100.00
2023-09-09T05:23:08.019Z,100.00
2023-09-09T05:24:40.998Z,100.00
2023-09-09T05:26:13.811Z,100.00
2023-09-09T05:27:47.084Z,100.00
2023-09-09T05:29:20.094Z,100.00
2023-09-09T05:30:52.873Z,100.00
2023-09-09T05:32:26.408Z,100.00
2023-09-09T05:33:59.339Z,100.00
2023-09-09T05:35:32.309Z,100.00
2023-09-09T05:37:05.367Z,100.00
2023-09-09T05:38:38.165Z,100.00
2023-09-09T05:40:11.686Z,100.00
2023-09-09T05:41:45.010Z,100.00
2023-09-09T05:43:18.122Z,100.00
2023-09-09T05:44:50.976Z,100.00
2023-09-09T05:46:24.418Z,100.00
2023-09-09T05:47:57.863Z,100.00
2023-09-09T05:49:38.592Z,100.00
2023-09-09T05:51:12.643Z,100.00
2023-09-09T05:52:45.690Z,100.00
2023-09-09T05:54:18.797Z,100.00
2023-09-09T05:55:51.732Z,100.00
2023-09-09T05:57:25.346Z,100.00
2023-09-09T05:58:58.583Z,100.00
2023-09-09T06:00:32.237Z,100.00
2023-09-09T06:02:06.997Z,100.00
2023-09-09T06:03:40.359Z,100.00
2023-09-09T06:05:13.979Z,100.00
2023-09-09T06:06:47.328Z,100.00
2023-09-09T06:08:20.724Z,100.00
2023-09-09T06:09:53.738Z,100.00
2023-09-09T06:11:26.781Z,100.00
2023-09-09T06:13:00.115Z,100.00
2023-09-09T06:14:33.296Z,100.00
2023-09-09T06:16:06.144Z,100.00
2023-09-09T06:17:39.472Z,100.00
2023-09-09T06:19:14.525Z,100.00
2023-09-09T06:20:49.196Z,100.00
2023-09-09T06:22:22.117Z,100.00
2023-09-09T06:23:55.271Z,100.00
2023-09-09T06:25:28.158Z,100.00
2023-09-09T06:27:01.493Z,100.00
2023-09-09T06:28:36.678Z,100.00
2023-09-09T06:30:09.934Z,100.00
2023-09-09T06:31:43.005Z,100.00
2023-09-09T06:33:16.294Z,100.00
2023-09-09T06:34:50.233Z,100.00
2023-09-09T06:36:23.120Z,100.00
2023-09-09T06:37:56.276Z,100.00
2023-09-09T06:39:29.116Z,100.00
2023-09-09T06:41:02.001Z,100.00
2023-09-09T06:42:35.051Z,100.00
2023-09-09T06:44:08.216Z,100.00
2023-09-09T06:45:41.367Z,100.00
2023-09-09T06:47:14.693Z,100.00
2023-09-09T06:48:47.818Z,100.00
2023-09-09T06:50:20.732Z,100.00
2023-09-09T06:51:53.634Z,100.00
2023-09-09T06:53:26.512Z,100.00
2023-09-09T06:54:59.481Z,100.00
2023-09-09T06:56:32.300Z,100.00
2023-09-09T06:58:05.117Z,100.00
2023-09-09T06:59:38.023Z,100.00
2023-09-09T07:01:11.298Z,100.00
2023-09-09T07:02:44.268Z,100.00
2023-09-09T07:04:17.150Z,100.00
2023-09-09T07:05:50.558Z,100.00
2023-09-09T07:07:23.644Z,100.00
2023-09-09T07:08:56.513Z,100.00
2023-09-09T07:10:29.482Z,100.00
2023-09-09T07:12:02.354Z,100.00
2023-09-09T07:13:35.579Z,100.00
2023-09-09T07:15:10.357Z,100.00
2023-09-09T07:16:43.535Z,100.00
2023-09-09T07:18:16.811Z,100.00
2023-09-09T07:19:49.776Z,100.00
2023-09-09T07:21:22.683Z,100.00
2023-09-09T07:22:55.932Z,100.00
2023-09-09T07:24:28.768Z,100.00
2023-09-09T07:26:03.014Z,100.00
2023-09-09T07:27:38.676Z,100.00
2023-09-09T07:29:12.002Z,100.00
2023-09-09T07:30:45.405Z,100.00
2023-09-09T07:32:18.380Z,100.00
2023-09-09T07:33:51.544Z,100.00
2023-09-09T07:35:24.456Z,100.00
2023-09-09T07:36:57.394Z,100.00
2023-09-09T07:38:30.294Z,100.00
2023-09-09T07:40:03.553Z,100.00
2023-09-09T07:41:36.526Z,100.00
2023-09-09T07:43:09.708Z,100.00
2023-09-09T07:44:46.555Z,100.00
2023-09-09T07:46:20.032Z,100.00
2023-09-09T07:47:53.230Z,100.00
2023-09-09T07:49:26.641Z,100.00
2023-09-09T07:50:59.590Z,100.00
2023-09-09T07:52:32.916Z,100.00
2023-09-09T07:54:06.062Z,100.00
2023-09-09T07:55:39.203Z,100.00
2023-09-09T07:57:12.240Z,100.00
2023-09-09T07:58:45.412Z,100.00
2023-09-09T08:00:18.520Z,100.00
2023-09-09T08:01:51.442Z,100.00
2023-09-09T08:03:24.532Z,100.00
2023-09-09T08:04:57.484Z,100.00
2023-09-09T08:06:30.386Z,100.00
2023-09-09T08:08:03.674Z,100.00
2023-09-09T08:09:36.555Z,100.00
2023-09-09T08:11:09.702Z,100.00
2023-09-09T08:12:43.017Z,100.00
2023-09-09T08:14:19.419Z,100.00
2023-09-09T08:15:52.726Z,100.00
2023-09-09T08:17:25.879Z,100.00
2023-09-09T08:19:02.039Z,100.00
2023-09-09T08:20:34.977Z,100.00
2023-09-09T08:22:07.847Z,100.00
2023-09-09T08:23:42.400Z,100.00
2023-09-09T08:25:15.296Z,100.00
2023-09-09T08:26:48.213Z,100.00
2023-09-09T08:28:21.141Z,100.00
2023-09-09T08:29:54.038Z,100.00
2023-09-09T08:31:27.198Z,100.00
2023-09-09T08:33:03.419Z,100.00
2023-09-09T08:34:37.412Z,100.00
2023-09-09T08:36:10.457Z,100.00
2023-09-09T08:37:43.275Z,100.00
2023-09-09T08:39:16.456Z,100.00
2023-09-09T08:41:19.970Z,100.00
2023-09-09T08:43:30.114Z,100.00
2023-09-09T08:45:31.535Z,99.11
2023-09-09T08:47:05.198Z,97.95
2023-09-09T08:48:41.914Z,97.04
2023-09-09T08:50:18.429Z,96.91
2023-09-09T08:52:11.368Z,96.96
2023-09-09T08:53:53.094Z,97.14
2023-09-09T08:55:26.530Z,96.68
2023-09-09T08:57:02.262Z,94.92
2023-09-09T08:58:36.040Z,94.79
2023-09-09T09:00:11.246Z,94.68
2023-09-09T09:01:44.811Z,94.85
2023-09-09T09:03:20.575Z,93.06
2023-09-09T09:04:55.488Z,93.17
2023-09-09T09:06:29.500Z,93.17
2023-09-09T09:08:02.876Z,92.87
2023-09-09T09:09:36.360Z,91.67
2023-09-09T09:11:13.473Z,89.45
2023-09-09T09:12:46.709Z,89.86
2023-09-09T09:14:19.612Z,87.36
2023-09-09T09:15:52.891Z,86.26
2023-09-09T09:17:27.043Z,84.32
2023-09-09T09:19:03.841Z,84.91
2023-09-09T09:20:37.363Z,83.80
2023-09-09T09:22:10.979Z,81.65
2023-09-09T09:23:46.487Z,81.50
2023-09-09T09:25:22.926Z,80.21
2023-09-09T09:26:59.877Z,80.47
2023-09-09T09:28:33.638Z,81.03
2023-09-09T09:30:08.043Z,81.04
2023-09-09T09:31:41.151Z,81.24
2023-09-09T09:33:13.983Z,81.70
2023-09-09T09:34:48.769Z,81.83
2023-09-09T09:36:23.600Z,81.88
2023-09-09T09:38:02.134Z,80.87
2023-09-09T09:39:35.871Z,78.59
2023-09-09T09:41:10.811Z,77.53
2023-09-09T09:42:44.194Z,77.66
2023-09-09T09:44:22.032Z,77.83
2023-09-09T09:45:55.434Z,77.03
2023-09-09T09:47:42.635Z,75.60
2023-09-09T09:49:15.597Z,75.36
2023-09-09T09:50:54.180Z,73.55
2023-09-09T09:52:27.395Z,73.92
2023-09-09T09:54:00.457Z,73.98
2023-09-09T09:55:36.535Z,74.29
2023-09-09T09:57:11.322Z,73.32
2023-09-09T09:58:50.065Z,73.67
2023-09-09T10:00:25.150Z,73.00
2023-09-09T10:01:59.573Z,72.02
2023-09-09T10:03:46.010Z,71.84
2023-09-09T10:05:23.121Z,69.92
2023-09-09T10:06:57.610Z,69.83
2023-09-09T10:08:37.452Z,68.67
2023-09-09T10:10:16.951Z,66.30
2023-09-09T10:12:14.312Z,68.22
2023-09-09T10:14:10.081Z,67.96
2023-09-09T10:15:45.642Z,65.79
2023-09-09T10:17:22.381Z,66.03
2023-09-09T10:18:58.333Z,63.15
2023-09-09T10:20:32.026Z,64.37
2023-09-09T10:22:05.816Z,64.78
2023-09-09T10:23:40.965Z,65.64
2023-09-09T10:25:15.250Z,64.24
2023-09-09T10:26:50.408Z,63.01
2023-09-09T10:28:26.054Z,64.57
2023-09-09T10:30:01.810Z,64.99
2023-09-09T10:31:37.265Z,65.13
2023-09-09T10:33:15.060Z,65.25
2023-09-09T10:34:51.510Z,65.91
2023-09-09T10:36:30.315Z,66.06
2023-09-09T10:38:06.074Z,66.89
2023-09-09T10:39:39.825Z,65.21
2023-09-09T10:41:13.998Z,66.18
2023-09-09T10:42:48.690Z,66.44
2023-09-09T10:44:21.805Z,64.21
2023-09-09T10:45:55.242Z,65.64
2023-09-09T10:47:28.532Z,66.19
2023-09-09T10:49:05.613Z,66.79
2023-09-09T10:50:54.327Z,66.57
2023-09-09T10:52:34.386Z,66.55
2023-09-09T10:54:09.123Z,66.61
2023-09-09T10:55:42.160Z,66.40
2023-09-09T10:57:15.390Z,66.35
2023-09-09T10:58:52.033Z,66.08
2023-09-09T11:00:44.831Z,62.33
2023-09-09T11:02:23.612Z,63.92
2023-09-09T11:03:59.107Z,64.29
2023-09-09T11:06:02.759Z,63.89
2023-09-09T11:07:44.725Z,64.04
2023-09-09T11:09:17.715Z,64.13
2023-09-09T11:11:16.339Z,64.15
2023-09-09T11:12:58.758Z,63.16
2023-09-09T11:14:32.838Z,62.79
2023-09-09T11:16:05.954Z,62.64
2023-09-09T11:17:43.068Z,62.06
2023-09-09T11:19:16.749Z,62.08
2023-09-09T11:20:52.066Z,62.27
2023-09-09T11:22:28.036Z,62.05
2023-09-09T11:24:04.144Z,62.17
2023-09-09T11:25:39.719Z,61.75
2023-09-09T11:27:14.077Z,62.00
2023-09-09T11:28:56.542Z,62.04
2023-09-09T11:30:29.445Z,61.89
2023-09-09T11:32:03.021Z,61.30
2023-09-09T11:33:35.977Z,61.97
2023-09-09T11:35:09.437Z,62.24
2023-09-09T11:36:43.165Z,62.01
2023-09-09T11:38:16.066Z,62.15
2023-09-09T11:39:52.845Z,62.27
2023-09-09T11:41:28.957Z,62.29
2023-09-09T11:43:02.049Z,63.04
2023-09-09T11:44:44.236Z,61.67
2023-09-09T11:46:17.485Z,61.74
2023-09-09T11:47:50.602Z,61.44
2023-09-09T11:49:24.138Z,61.56
2023-09-09T11:50:57.236Z,58.97
2023-09-09T11:52:30.393Z,59.40
2023-09-09T11:54:05.987Z,59.78
2023-09-09T11:55:40.193Z,59.85
2023-09-09T11:57:13.166Z,59.10
2023-09-09T11:58:46.458Z,59.46
2023-09-09T12:00:25.297Z,59.48
2023-09-09T12:02:01.793Z,59.53
2023-09-09T12:03:35.364Z,59.01
2023-09-09T12:05:08.599Z,59.19
2023-09-09T12:06:52.817Z,59.04
2023-09-09T12:08:27.289Z,58.28
2023-09-09T12:10:03.091Z,58.51
2023-09-09T12:11:37.326Z,58.11
2023-09-09T12:13:10.897Z,57.75
2023-09-09T12:14:48.807Z,57.69
2023-09-09T12:16:22.554Z,56.92
2023-09-09T12:17:55.684Z,56.46
2023-09-09T12:19:28.587Z,56.62
2023-09-09T12:21:11.316Z,54.66
2023-09-09T12:22:47.587Z,55.83
2023-09-09T12:24:20.536Z,56.11
2023-09-09T12:25:53.400Z,54.64
2023-09-09T12:27:46.601Z,53.84
2023-09-09T12:29:19.548Z,53.55
2023-09-09T12:30:52.459Z,53.74
2023-09-09T12:32:29.509Z,53.95
2023-09-09T12:34:03.776Z,53.68
2023-09-09T12:35:42.944Z,53.90
2023-09-09T12:37:15.977Z,53.74
2023-09-09T12:38:51.085Z,52.88
2023-09-09T12:40:24.095Z,51.77
2023-09-09T12:42:07.839Z,52.10
2023-09-09T12:43:40.968Z,51.90
2023-09-09T12:45:14.262Z,52.64
2023-09-09T12:46:53.622Z,51.57
2023-09-09T12:48:27.177Z,50.80
2023-09-09T12:50:00.145Z,51.83
2023-09-09T12:51:33.287Z,51.87
2023-09-09T12:53:06.403Z,51.74
2023-09-09T12:54:39.256Z,52.43
2023-09-09T12:56:12.213Z,52.60
2023-09-09T12:57:45.255Z,52.49
2023-09-09T12:59:18.100Z,52.69
2023-09-09T13:00:50.912Z,53.12
2023-09-09T13:02:24.119Z,52.84
2023-09-09T13:03:56.974Z,53.28
2023-09-09T13:05:30.515Z,53.20
2023-09-09T13:07:03.480Z,53.25
2023-09-09T13:08:38.051Z,53.39
2023-09-09T13:10:11.217Z,53.52
2023-09-09T13:11:44.152Z,53.52
2023-09-09T13:13:17.118Z,53.94
2023-09-09T13:14:50.152Z,54.15
2023-09-09T13:16:23.204Z,54.16
2023-09-09T13:17:56.267Z,54.33
2023-09-09T13:19:31.162Z,54.16
2023-09-09T13:21:06.171Z,53.38
2023-09-09T13:22:38.996Z,53.65
2023-09-09T13:24:11.932Z,54.11
2023-09-09T13:25:44.958Z,53.83
2023-09-09T13:27:19.926Z,54.10
2023-09-09T13:28:53.131Z,54.51
2023-09-09T13:30:28.335Z,55.04
2023-09-09T13:32:01.637Z,55.21
2023-09-09T13:33:34.842Z,54.91
2023-09-09T13:35:08.405Z,54.58
2023-09-09T13:36:41.270Z,55.05
2023-09-09T13:38:14.267Z,54.87
2023-09-09T13:39:47.392Z,54.66
2023-09-09T13:41:20.332Z,54.80
2023-09-09T13:42:53.258Z,54.49
2023-09-09T13:44:26.439Z,54.95
2023-09-09T13:46:00.799Z,54.64
2023-09-09T13:47:34.193Z,54.87
2023-09-09T13:49:08.030Z,55.08
2023-09-09T13:50:40.966Z,55.46
2023-09-09T13:52:14.119Z,55.53
2023-09-09T13:53:47.198Z,55.36
2023-09-09T13:55:20.105Z,55.02
2023-09-09T13:56:52.952Z,55.43
2023-09-09T13:58:25.816Z,55.03
2023-09-09T13:59:59.051Z,55.26
2023-09-09T14:01:32.163Z,55.30
2023-09-09T14:03:05.461Z,55.54
2023-09-09T14:04:38.669Z,55.50
2023-09-09T14:06:11.642Z,56.06
2023-09-09T14:07:44.659Z,56.24
2023-09-09T14:09:17.691Z,55.79
2023-09-09T14:10:50.827Z,55.96
2023-09-09T14:12:24.789Z,56.72
2023-09-09T14:13:59.645Z,56.89
2023-09-09T14:15:34.145Z,57.60
2023-09-09T14:17:07.543Z,57.60
2023-09-09T14:18:40.682Z,57.56
2023-09-09T14:20:14.018Z,57.58
2023-09-09T14:21:47.245Z,57.35
2023-09-09T14:23:20.812Z,57.35
2023-09-09T14:24:53.738Z,57.80
2023-09-09T14:26:26.690Z,58.78
2023-09-09T14:27:59.927Z,59.29
2023-09-09T14:29:33.221Z,59.88
2023-09-09T14:31:06.554Z,60.26
2023-09-09T14:32:39.556Z,60.58
2023-09-09T14:34:12.981Z,61.32
2023-09-09T14:35:46.272Z,61.46
2023-09-09T14:37:19.235Z,61.65
2023-09-09T14:38:52.594Z,62.10
2023-09-09T14:40:25.480Z,62.22
2023-09-09T14:41:58.720Z,62.30
2023-09-09T14:43:31.745Z,63.18
2023-09-09T14:45:05.695Z,63.73
2023-09-09T14:46:38.651Z,63.62
2023-09-09T14:48:15.411Z,64.31
2023-09-09T14:49:48.362Z,64.79
2023-09-09T14:51:21.599Z,64.87
2023-09-09T14:52:54.921Z,64.81
2023-09-09T14:54:27.989Z,64.75
2023-09-09T14:56:00.969Z,64.66
2023-09-09T14:57:33.946Z,64.81
2023-09-09T14:59:06.819Z,65.10
2023-09-09T15:00:39.983Z,65.15
2023-09-09T15:02:13.372Z,65.65
2023-09-09T15:03:46.376Z,65.82
2023-09-09T15:05:23.857Z,65.94
2023-09-09T15:06:56.829Z,65.99
2023-09-09T15:08:29.826Z,66.51
2023-09-09T15:10:02.822Z,66.80
2023-09-09T15:11:35.930Z,67.23
2023-09-09T15:13:09.274Z,67.70
2023-09-09T15:14:42.345Z,67.42
2023-09-09T15:16:15.213Z,67.61
2023-09-09T15:17:49.594Z,67.79
2023-09-09T15:19:23.540Z,67.63
2023-09-09T15:20:56.469Z,67.94
2023-09-09T15:22:29.350Z,68.28
2023-09-09T15:24:02.222Z,68.79
2023-09-09T15:25:35.482Z,68.61
2023-09-09T15:27:08.435Z,69.45
2023-09-09T15:28:41.703Z,69.86
2023-09-09T15:30:15.093Z,70.18
2023-09-09T15:31:48.312Z,71.06
2023-09-09T15:33:21.389Z,71.16
2023-09-09T15:34:54.496Z,71.30
2023-09-09T15:36:27.699Z,72.17
2023-09-09T15:38:00.536Z,72.73
2023-09-09T15:39:33.558Z,73.34
2023-09-09T15:42:39.202Z,74.35
2023-09-09T15:44:12.117Z,75.11
2023-09-09T15:45:44.944Z,75.63
2023-09-09T15:47:18.322Z,76.02
2023-09-09T15:48:51.239Z,76.25
2023-09-09T15:50:24.109Z,76.78
2023-09-09T15:51:57.133Z,77.11
2023-09-09T15:53:30.147Z,77.06
2023-09-09T15:55:03.105Z,77.80
2023-09-09T15:56:36.584Z,77.41
2023-09-09T15:58:09.543Z,77.77
2023-09-09T15:59:42.628Z,77.98
2023-09-09T16:01:15.513Z,78.79
2023-09-09T16:02:49.802Z,79.25
2023-09-09T16:04:22.988Z,80.17
2023-09-09T16:06:02.556Z,80.30
2023-09-09T16:07:40.294Z,80.94
2023-09-09T16:09:13.237Z,81.01
2023-09-09T16:10:46.124Z,81.52
2023-09-09T16:12:18.938Z,81.49
2023-09-09T16:13:51.941Z,81.41
2023-09-09T16:15:27.950Z,81.53
2023-09-09T16:17:00.894Z,81.71
2023-09-09T16:18:42.544Z,81.81
2023-09-09T16:20:16.106Z,81.84
2023-09-09T16:21:51.735Z,82.32
2023-09-09T16:23:24.630Z,82.98
2023-09-09T16:24:57.531Z,83.29
2023-09-09T16:26:30.523Z,83.44
2023-09-09T16:28:03.745Z,84.12
2023-09-09T16:29:36.716Z,84.21
2023-09-09T16:31:09.895Z,84.33
2023-09-09T16:32:43.180Z,84.69
2023-09-09T16:34:16.270Z,85.26
2023-09-09T16:35:49.505Z,85.67
2023-09-09T16:37:22.945Z,86.00
2023-09-09T16:38:55.803Z,85.97
2023-09-09T16:40:28.826Z,86.58
2023-09-09T16:42:01.826Z,87.24
2023-09-09T16:43:35.303Z,87.62
2023-09-09T16:45:09.006Z,88.01
2023-09-09T16:46:42.128Z,88.39
2023-09-09T16:48:22.083Z,88.72
2023-09-09T16:49:57.242Z,88.94
2023-09-09T16:51:30.151Z,89.14
2023-09-09T16:53:03.592Z,90.46
2023-09-09T16:54:36.436Z,90.57
2023-09-09T16:56:09.347Z,90.92
2023-09-09T16:57:42.636Z,91.41
2023-09-09T16:59:15.881Z,92.32
2023-09-09T17:00:48.945Z,91.97
2023-09-09T17:02:21.944Z,93.20
2023-09-09T17:03:54.926Z,92.64
2023-09-09T17:05:27.964Z,93.32
2023-09-09T17:07:01.222Z,93.16
2023-09-09T17:08:34.064Z,93.32
2023-09-09T17:10:07.996Z,93.63
2023-09-09T17:11:40.894Z,94.14
2023-09-09T17:13:13.893Z,95.27
2023-09-09T17:14:47.304Z,95.14
2023-09-09T17:16:20.258Z,95.33
2023-09-09T17:17:55.474Z,95.85
2023-09-09T17:19:30.683Z,95.97
2023-09-09T17:21:05.188Z,96.66
2023-09-09T17:22:38.193Z,96.32
2023-09-09T17:24:11.475Z,96.52
2023-09-09T17:25:44.378Z,96.58
2023-09-09T17:27:17.548Z,96.78
2023-09-09T17:28:50.692Z,97.41
2023-09-09T17:30:23.794Z,97.21
2023-09-09T17:31:57.097Z,97.66
2023-09-09T17:33:29.968Z,98.41
2023-09-09T17:35:02.818Z,98.99
2023-09-09T17:36:36.096Z,99.58
2023-09-09T17:38:09.185Z,99.92
2023-09-09T17:39:42.416Z,100.00
2023-09-09T17:41:15.290Z,99.69
2023-09-09T17:42:48.260Z,99.79
2023-09-09T17:44:21.144Z,100.00
2023-09-09T17:45:54.054Z,100.00
2023-09-09T17:47:26.981Z,100.00
2023-09-09T17:49:04.142Z,100.00
2023-09-09T17:50:37.372Z,100.00
2023-09-09T17:52:11.609Z,100.00
2023-09-09T17:53:44.863Z,100.00
2023-09-09T17:55:18.146Z,100.00
2023-09-09T17:56:50.909Z,100.00
2023-09-09T17:58:23.809Z,100.00
2023-09-09T17:59:56.819Z,100.00
2023-09-09T18:01:30.314Z,100.00
2023-09-09T18:03:03.771Z,100.00
2023-09-09T18:04:36.839Z,100.00
2023-09-09T18:06:10.644Z,100.00
2023-09-09T18:07:43.802Z,100.00
2023-09-09T18:09:17.097Z,100.00
2023-09-09T18:10:50.195Z,100.00
2023-09-09T18:12:23.487Z,100.00
2023-09-09T18:13:56.727Z,100.00
2023-09-09T18:15:29.670Z,100.00
2023-09-09T18:17:03.797Z,100.00
2023-09-09T18:18:39.224Z,100.00
2023-09-09T18:20:12.690Z,100.00
2023-09-09T18:21:45.505Z,100.00
2023-09-09T18:23:19.541Z,100.00
2023-09-09T18:24:52.739Z,100.00
2023-09-09T18:26:25.812Z,100.00
2023-09-09T18:27:58.752Z,100.00
2023-09-09T18:29:31.937Z,100.00
2023-09-09T18:31:05.487Z,100.00
2023-09-09T18:32:41.306Z,100.00
2023-09-09T18:34:14.838Z,100.00
2023-09-09T18:35:47.605Z,100.00
2023-09-09T18:37:20.704Z,100.00
2023-09-09T18:38:53.848Z,100.00
2023-09-09T18:40:26.712Z,100.00
2023-09-09T18:41:59.863Z,100.00
2023-09-09T18:43:32.828Z,100.00
2023-09-09T18:45:06.962Z,100.00
2023-09-09T18:46:40.014Z,100.00
2023-09-09T18:48:13.878Z,100.00
2023-09-09T18:49:46.938Z,100.00
2023-09-09T18:51:19.913Z,100.00
2023-09-09T18:52:52.866Z,100.00
2023-09-09T18:54:25.852Z,100.00
2023-09-09T18:55:58.902Z,100.00
2023-09-09T18:57:31.838Z,100.00
2023-09-09T18:59:04.912Z,100.00
2023-09-09T19:00:37.991Z,100.00
2023-09-09T19:02:10.919Z,100.00
2023-09-09T19:03:44.260Z,100.00
2023-09-09T19:05:18.178Z,100.00
2023-09-09T19:06:51.352Z,100.00
2023-09-09T19:08:24.378Z,100.00
2023-09-09T19:09:57.436Z,100.00
2023-09-09T19:11:30.305Z,100.00
2023-09-09T19:13:03.212Z,100.00
2023-09-09T19:14:36.377Z,100.00
2023-09-09T19:16:09.792Z,100.00
2023-09-09T19:17:42.623Z,100.00
2023-09-09T19:19:15.627Z,100.00
2023-09-09T19:20:51.734Z,100.00
2023-09-09T19:22:26.177Z,100.00
2023-09-09T19:23:59.131Z,100.00
2023-09-09T19:25:35.206Z,100.00
2023-09-09T19:27:08.724Z,100.00
2023-09-09T19:28:43.493Z,100.00
2023-09-09T19:30:16.319Z,100.00
2023-09-09T19:31:50.002Z,100.00
2023-09-09T19:33:23.018Z,100.00
2023-09-09T19:34:55.997Z,100.00
2023-09-09T19:36:28.880Z,100.00
2023-09-09T19:38:04.836Z,100.00
2023-09-09T19:39:37.909Z,100.00
2023-09-09T19:41:10.847Z,100.00
2023-09-09T19:42:43.685Z,100.00
2023-09-09T19:44:16.538Z,100.00
2023-09-09T19:45:49.439Z,100.00
2023-09-09T19:47:23.793Z,100.00
2023-09-09T19:48:56.701Z,100.00
2023-09-09T19:50:29.501Z,100.00
2023-09-09T19:52:02.477Z,100.00
2023-09-09T19:53:35.830Z,100.00